Time;durP1;ratioP1;P1;durP2;ratioP2;P2;SDS_P1;SDS_P2;PMS_P1;PMS_P2;Temp;Humidity;BMP_temperature;BMP_pressure;BME280_temperature;BME280_humidity;BME280_pressure;Samples;Min_cycle;Max_cycle;Signal;HPM_P1;HPM_P2
2023/01/23 00:01:00;;;;;;;17.17;6.43;;;2.50;99.90;;;;;;6230717;22;20408;-85
2023/01/23 00:03:26;;;;;;;14.60;6.28;;;2.50;99.90;;;;;;6248925;22;20110;-85
2023/01/23 00:06:00;;;;;;;16.63;6.57;;;2.60;99.90;;;;;;6220183;22;20117;-85
2023/01/23 00:08:26;;;;;;;18.65;7.07;;;2.80;99.90;;;;;;6219974;22;20016;-83
2023/01/23 00:10:52;;;;;;;17.65;6.85;;;2.80;99.90;;;;;;6244960;22;20015;-84
2023/01/23 00:13:17;;;;;;;16.10;6.50;;;2.80;99.90;;;;;;6217722;22;20012;-85
2023/01/23 00:15:43;;;;;;;13.82;6.43;;;2.50;99.90;;;;;;6245554;22;20476;-85
2023/01/23 00:18:09;;;;;;;18.33;6.20;;;2.90;99.90;;;;;;6243827;22;20398;-85
2023/01/23 00:20:39;;;;;;;11.48;5.78;;;2.50;99.90;;;;;;6220325;22;20019;-84
2023/01/23 00:23:05;;;;;;;16.83;6.30;;;2.50;99.90;;;;;;6271713;22;20015;-83
2023/01/23 00:25:32;;;;;;;15.63;6.57;;;2.80;99.90;;;;;;6272087;22;20012;-85
2023/01/23 00:27:58;;;;;;;17.63;6.72;;;2.60;99.90;;;;;;6244867;22;20008;-84
2023/01/23 00:30:23;;;;;;;20.65;6.43;;;2.60;99.90;;;;;;6220448;22;20063;-84
2023/01/23 00:32:49;;;;;;;15.52;6.47;;;2.80;99.90;;;;;;6219776;22;20019;-84
2023/01/23 00:35:15;;;;;;;20.55;7.25;;;2.70;99.90;;;;;;6245278;22;20011;-84
2023/01/23 00:37:41;;;;;;;12.65;5.95;;;2.90;99.90;;;;;;6222186;22;20012;-86
2023/01/23 00:40:07;;;;;;;12.90;6.40;;;2.60;99.90;;;;;;6222836;22;20265;-84
2023/01/23 00:42:33;;;;;;;12.90;6.53;;;2.60;99.90;;;;;;6248050;22;20315;-86
2023/01/23 00:44:59;;;;;;;16.77;6.40;;;2.80;99.90;;;;;;6273961;22;20016;-87
2023/01/23 00:47:25;;;;;;;15.10;5.70;;;2.50;99.90;;;;;;6222145;22;20012;-85
2023/01/23 00:49:52;;;;;;;16.80;6.97;;;2.70;99.90;;;;;;6246446;22;20457;-84
2023/01/23 00:52:19;;;;;;;15.07;6.47;;;2.50;99.90;;;;;;6221016;22;20043;-84
2023/01/23 00:54:45;;;;;;;19.77;6.07;;;2.80;99.90;;;;;;6221670;22;20015;-87
2023/01/23 00:57:10;;;;;;;16.45;6.50;;;2.50;99.90;;;;;;6222555;22;20014;-87
2023/01/23 00:59:36;;;;;;;13.60;5.90;;;2.80;99.90;;;;;;6252364;22;20325;-86
2023/01/23 01:02:17;;;;;;;13.45;6.35;;;2.90;99.90;;;;;;6237187;22;20055;-86
2023/01/23 01:04:43;;;;;;;12.40;6.40;;;2.90;99.90;;;;;;6248110;22;20446;-85
2023/01/23 01:07:08;;;;;;;11.77;5.80;;;2.70;99.90;;;;;;6234113;22;20019;-85
2023/01/23 01:09:34;;;;;;;13.38;5.93;;;2.50;99.90;;;;;;6223535;22;20015;-83
2023/01/23 01:12:00;;;;;;;17.08;6.00;;;2.50;99.90;;;;;;6247159;22;20076;-85
2023/01/23 01:14:25;;;;;;;12.35;5.50;;;2.60;99.90;;;;;;6247824;22;20011;-86
2023/01/23 01:16:51;;;;;;;16.52;6.03;;;2.90;99.90;;;;;;6247129;22;20015;-86
2023/01/23 01:19:17;;;;;;;17.52;6.28;;;2.70;99.90;;;;;;6247585;22;20015;-85
2023/01/23 01:21:43;;;;;;;12.60;6.18;;;2.70;99.90;;;;;;6235557;22;20034;-83
2023/01/23 01:24:09;;;;;;;15.48;6.70;;;2.40;99.90;;;;;;6221080;22;20020;-85
2023/01/23 01:26:35;;;;;;;13.30;5.97;;;2.80;99.90;;;;;;6221959;22;20024;-87
2023/01/23 01:29:02;;;;;;;15.55;5.70;;;2.70;99.90;;;;;;6221845;22;20008;-83
2023/01/23 01:31:28;;;;;;;11.40;6.40;;;2.40;99.90;;;;;;6220947;22;20090;-84
2023/01/23 01:33:54;;;;;;;17.45;6.38;;;2.50;99.90;;;;;;6221831;22;20117;-87
2023/01/23 01:36:21;;;;;;;13.27;5.97;;;2.70;99.90;;;;;;6221862;22;20021;-86
2023/01/23 01:38:47;;;;;;;12.77;6.20;;;2.80;99.90;;;;;;6222821;22;20011;-84
2023/01/23 01:41:14;;;;;;;16.02;5.75;;;2.80;99.90;;;;;;6249860;22;20043;-84
2023/01/23 01:43:41;;;;;;;14.70;6.45;;;2.70;99.90;;;;;;6226656;22;20367;-85
2023/01/23 01:46:22;;;;;;;16.67;6.88;;;2.50;99.90;;;;;;6225627;22;20049;-87
2023/01/23 01:49:03;;;;;;;14.18;6.18;;;2.50;99.90;;;;;;6233043;22;20046;-86
2023/01/23 01:51:42;;;;;;;15.40;6.55;;;2.70;99.90;;;;;;6220047;22;20098;-85
2023/01/23 01:54:12;;;;;;;20.13;7.03;;;2.60;99.90;;;;;;6245890;22;20016;-86
2023/01/23 01:56:43;;;;;;;15.50;6.53;;;2.50;99.90;;;;;;6221773;22;20011;-83
2023/01/23 01:59:10;;;;;;;14.55;6.38;;;2.80;99.90;;;;;;6247230;22;20402;-88
2023/01/23 02:01:39;;;;;;;11.82;6.30;;;2.60;99.90;;;;;;6221789;22;20420;-84
2023/01/23 02:04:05;;;;;;;11.77;6.22;;;2.60;99.90;;;;;;6221913;22;20015;-87
2023/01/23 02:06:31;;;;;;;14.18;6.28;;;2.70;99.90;;;;;;6221819;22;20053;-86
2023/01/23 02:09:13;;;;;;;18.80;6.82;;;2.80;99.90;;;;;;6247048;22;20427;-87
2023/01/23 02:11:39;;;;;;;14.68;6.22;;;2.80;99.90;;;;;;6221862;22;20026;-87
2023/01/23 02:14:05;;;;;;;13.73;6.20;;;2.70;99.90;;;;;;6222999;22;20016;-86
2023/01/23 02:16:39;;;;;;;14.68;6.13;;;2.60;99.90;;;;;;6247616;22;20113;-83
2023/01/23 02:19:30;;;;;;;13.90;6.20;;;2.50;99.90;;;;;;6247884;22;20043;-85
2023/01/23 02:22:24;;;;;;;15.27;6.13;;;2.80;99.90;;;;;;6073785;23;20040;-84
2023/01/23 02:25:32;;;;;;;14.63;6.30;;;2.80;99.90;;;;;;5984582;23;20532;-86
2023/01/23 02:27:57;;;;;;;13.65;6.30;;;2.50;99.90;;;;;;6007619;23;20019;-86
2023/01/23 02:30:23;;;;;;;15.35;6.82;;;2.80;99.90;;;;;;5983575;23;20047;-83
2023/01/23 02:32:49;;;;;;;11.98;6.18;;;2.60;99.90;;;;;;5982549;23;20211;-84
2023/01/23 02:35:25;;;;;;;13.40;6.53;;;2.60;99.90;;;;;;5959448;23;20015;-83
2023/01/23 02:37:54;;;;;;;15.80;6.28;;;2.80;99.90;;;;;;5958616;23;20016;-86
2023/01/23 02:40:32;;;;;;;16.88;6.43;;;2.40;99.90;;;;;;5959755;23;20030;-85
2023/01/23 02:42:59;;;;;;;15.52;6.85;;;2.40;99.90;;;;;;5960181;23;20540;-87
2023/01/23 02:45:24;;;;;;;14.77;6.72;;;2.40;99.90;;;;;;5961274;23;20023;-84
2023/01/23 02:47:50;;;;;;;16.60;7.28;;;2.80;99.90;;;;;;6007779;23;20020;-83
2023/01/23 02:50:16;;;;;;;14.25;6.82;;;2.80;99.90;;;;;;5984860;23;20472;-84
2023/01/23 02:52:42;;;;;;;13.65;6.90;;;2.70;99.90;;;;;;5984147;23;20019;-86
2023/01/23 02:55:08;;;;;;;17.98;7.22;;;2.80;99.90;;;;;;5961815;23;20023;-87
2023/01/23 02:57:34;;;;;;;19.67;7.72;;;2.70;99.90;;;;;;5984278;23;20495;-86
2023/01/23 03:02:48;;;;;;;14.02;6.75;;;2.80;99.90;;;;;;6237976;22;20016;-84
2023/01/23 03:05:14;;;;;;;17.70;7.57;;;2.40;99.90;;;;;;6223963;22;20262;-84
2023/01/23 03:07:40;;;;;;;15.98;7.20;;;2.40;99.90;;;;;;6249090;22;20087;-83
2023/01/23 03:10:08;;;;;;;14.57;7.18;;;2.40;99.90;;;;;;6224610;22;20050;-86
2023/01/23 03:12:36;;;;;;;18.20;7.18;;;2.60;99.90;;;;;;6223723;22;20011;-86
2023/01/23 03:15:04;;;;;;;19.75;7.03;;;2.30;99.90;;;;;;6250215;22;20016;-84
2023/01/23 03:17:31;;;;;;;13.68;7.40;;;2.50;99.90;;;;;;6224182;22;20016;-84
2023/01/23 03:19:57;;;;;;;16.88;8.00;;;2.60;99.90;;;;;;6229674;22;20419;-83
2023/01/23 03:22:23;;;;;;;17.27;6.90;;;2.50;99.90;;;;;;6223214;22;20019;-86
2023/01/23 03:24:49;;;;;;;15.05;7.45;;;2.80;99.90;;;;;;6249069;22;20015;-85
2023/01/23 03:27:15;;;;;;;12.32;6.25;;;2.40;99.90;;;;;;6223368;22;20007;-83
2023/01/23 03:32:25;;;;;;;16.85;6.90;;;2.40;99.90;;;;;;6248016;22;20019;-85
2023/01/23 03:34:50;;;;;;;15.82;7.57;;;2.60;99.90;;;;;;6223660;22;20347;-85
2023/01/23 03:37:18;;;;;;;17.92;7.47;;;2.40;99.90;;;;;;6248167;22;20007;-85
2023/01/23 03:42:29;;;;;;;13.10;6.78;;;2.70;99.90;;;;;;6248538;22;20427;-87
2023/01/23 03:44:54;;;;;;;12.73;7.55;;;2.40;99.90;;;;;;6224162;22;20090;-86
2023/01/23 03:47:20;;;;;;;19.10;8.30;;;2.40;99.90;;;;;;6224379;22;20115;-85
2023/01/23 03:49:46;;;;;;;15.25;7.68;;;2.60;99.90;;;;;;6223616;22;20090;-85
2023/01/23 03:52:12;;;;;;;14.52;6.80;;;2.40;99.90;;;;;;6222295;22;20008;-84
2023/01/23 03:54:38;;;;;;;15.18;7.75;;;2.40;99.90;;;;;;6222816;22;20015;-86
2023/01/23 03:57:03;;;;;;;17.08;7.50;;;2.40;99.90;;;;;;6223139;22;20007;-85
2023/01/23 03:59:29;;;;;;;13.38;6.95;;;2.70;99.90;;;;;;6223616;22;20305;-87
2023/01/23 04:01:56;;;;;;;12.95;7.18;;;2.80;99.90;;;;;;6221749;22;20121;-85
2023/01/23 04:04:22;;;;;;;11.40;7.25;;;2.80;99.90;;;;;;6222845;22;20011;-85
2023/01/23 04:06:48;;;;;;;14.82;7.20;;;2.80;99.90;;;;;;6246936;22;20019;-87
2023/01/23 04:09:13;;;;;;;13.25;7.75;;;2.80;99.90;;;;;;6223066;22;20090;-85
2023/01/23 04:11:39;;;;;;;11.68;7.18;;;2.90;99.90;;;;;;6223229;22;20489;-86
2023/01/23 04:14:04;;;;;;;14.73;7.40;;;2.50;99.90;;;;;;6248343;22;20023;-85
2023/01/23 04:20:12;;;;;;;14.23;6.88;;;2.40;99.90;;;;;;6275742;22;20045;-85
2023/01/23 04:22:38;;;;;;;15.50;7.10;;;2.40;99.90;;;;;;6222440;22;20039;-84
2023/01/23 04:25:05;;;;;;;13.40;7.00;;;2.70;99.90;;;;;;6222977;22;20061;-87
2023/01/23 04:27:32;;;;;;;14.32;6.68;;;2.50;99.90;;;;;;6222677;22;20363;-88
2023/01/23 04:29:57;;;;;;;10.23;6.50;;;2.50;99.90;;;;;;6224224;22;20023;-86
2023/01/23 04:36:05;;;;;;;9.88;5.97;;;2.40;99.90;;;;;;6294647;22;20033;-84
2023/01/23 04:38:32;;;;;;;12.13;6.18;;;2.30;99.90;;;;;;6248144;22;20010;-85
2023/01/23 04:40:59;;;;;;;14.55;6.15;;;2.30;99.90;;;;;;6258224;22;20064;-86
2023/01/23 04:43:25;;;;;;;14.38;7.43;;;2.60;99.90;;;;;;6225375;22;20012;-85
2023/01/23 04:45:52;;;;;;;11.00;6.53;;;2.50;99.90;;;;;;6224928;22;20011;-83
2023/01/23 04:48:18;;;;;;;16.17;6.57;;;2.60;99.90;;;;;;6249928;22;20424;-86
2023/01/23 04:50:43;;;;;;;13.07;6.90;;;2.40;99.90;;;;;;6224599;22;20023;-84
2023/01/23 04:53:10;;;;;;;13.52;6.75;;;2.50;99.90;;;;;;6222471;22;20020;-84
2023/01/23 04:55:35;;;;;;;15.05;6.53;;;2.70;99.90;;;;;;6223176;22;20290;-84
2023/01/23 04:58:01;;;;;;;14.23;6.40;;;2.40;99.90;;;;;;6223362;22;20023;-88
2023/01/23 05:00:28;;;;;;;18.92;7.20;;;2.70;99.90;;;;;;6248381;22;20030;-85
2023/01/23 05:02:55;;;;;;;13.65;6.70;;;2.30;99.90;;;;;;6222700;22;20049;-84
2023/01/23 05:05:22;;;;;;;14.32;6.88;;;2.30;99.90;;;;;;6222924;22;20063;-86
2023/01/23 05:07:48;;;;;;;15.18;6.97;;;2.70;99.90;;;;;;6223586;22;20012;-87
2023/01/23 05:10:14;;;;;;;14.23;6.88;;;2.60;99.90;;;;;;6232430;22;20046;-83
2023/01/23 05:12:41;;;;;;;13.30;7.22;;;2.70;99.90;;;;;;6234369;22;20020;-84
2023/01/23 05:15:08;;;;;;;13.20;6.68;;;2.40;99.90;;;;;;6253119;22;20012;-88
2023/01/23 05:17:34;;;;;;;13.45;6.78;;;2.70;99.90;;;;;;6249736;22;20011;-87
2023/01/23 05:19:59;;;;;;;11.98;7.20;;;2.70;99.90;;;;;;6247848;22;20022;-85
2023/01/23 05:22:25;;;;;;;16.67;7.75;;;2.60;99.90;;;;;;6250934;22;20031;-84
2023/01/23 05:24:51;;;;;;;11.00;7.57;;;2.60;99.90;;;;;;6224418;22;20008;-89
2023/01/23 05:27:17;;;;;;;14.82;8.40;;;2.50;99.90;;;;;;6223042;22;20358;-87
2023/01/23 05:29:42;;;;;;;13.65;8.10;;;2.50;99.90;;;;;;6247979;22;20007;-86
2023/01/23 05:32:08;;;;;;;14.98;8.32;;;2.50;99.90;;;;;;6247394;22;20014;-87
2023/01/23 05:34:34;;;;;;;17.80;8.88;;;2.30;99.90;;;;;;6221698;22;20316;-87
2023/01/23 05:36:59;;;;;;;17.42;8.93;;;2.30;99.90;;;;;;6221931;22;20026;-87
2023/01/23 05:39:25;;;;;;;19.05;8.55;;;2.70;99.90;;;;;;6222345;22;20452;-88
2023/01/23 05:41:51;;;;;;;17.35;9.60;;;2.80;99.90;;;;;;6247468;22;20015;-86
2023/01/23 05:44:16;;;;;;;15.48;7.82;;;2.40;99.90;;;;;;6222307;22;20016;-85
2023/01/23 05:46:42;;;;;;;15.48;9.10;;;2.70;99.90;;;;;;6221902;22;20404;-87
2023/01/23 05:49:08;;;;;;;17.40;8.40;;;2.50;99.90;;;;;;6222579;22;20011;-85
2023/01/23 05:51:33;;;;;;;15.43;8.65;;;2.50;99.90;;;;;;6275257;22;20133;-86
2023/01/23 05:54:00;;;;;;;20.08;8.63;;;2.60;99.90;;;;;;6221600;22;20019;-88
2023/01/23 05:56:26;;;;;;;18.50;9.02;;;2.60;99.90;;;;;;6222643;22;20319;-87
2023/01/23 05:58:52;;;;;;;18.17;9.02;;;2.50;99.90;;;;;;6246018;22;20019;-85
2023/01/23 06:01:19;;;;;;;19.17;8.90;;;2.50;99.90;;;;;;6246372;22;20019;-89
2023/01/23 06:03:45;;;;;;;17.90;8.70;;;2.60;99.90;;;;;;6221037;22;20011;-86
2023/01/23 06:06:10;;;;;;;15.18;9.15;;;2.40;99.90;;;;;;6248389;22;20076;-85
2023/01/23 06:08:36;;;;;;;15.57;8.38;;;2.50;99.90;;;;;;6251925;22;20015;-85
2023/01/23 06:11:02;;;;;;;17.52;9.15;;;2.70;99.90;;;;;;6224621;22;20059;-87
2023/01/23 06:13:28;;;;;;;14.82;8.90;;;2.50;99.90;;;;;;6223753;22;20018;-85
2023/01/23 06:16:12;;;;;;;17.95;8.73;;;2.40;99.90;;;;;;6248528;22;20011;-86
2023/01/23 06:18:38;;;;;;;15.27;8.32;;;2.40;99.90;;;;;;6250131;22;20039;-86
2023/01/23 06:21:04;;;;;;;15.15;8.32;;;2.40;99.90;;;;;;6248796;22;20311;-88
2023/01/23 06:23:29;;;;;;;17.10;8.68;;;2.40;99.90;;;;;;6223779;22;20031;-87
2023/01/23 06:25:59;;;;;;;15.80;8.10;;;2.80;99.90;;;;;;6251102;22;20011;-87
2023/01/23 06:28:25;;;;;;;17.83;8.63;;;2.50;99.90;;;;;;6249485;22;20008;-84
2023/01/23 06:30:50;;;;;;;18.20;8.93;;;2.60;99.90;;;;;;6275541;22;20130;-85
2023/01/23 06:33:16;;;;;;;17.05;8.55;;;2.50;99.90;;;;;;6246679;22;20011;-85
2023/01/23 06:35:42;;;;;;;19.98;8.88;;;2.70;99.90;;;;;;6254506;22;20008;-86
2023/01/23 06:38:07;;;;;;;14.52;8.85;;;2.80;99.90;;;;;;6221686;22;20072;-84
2023/01/23 06:40:33;;;;;;;16.58;8.38;;;2.40;99.90;;;;;;6221833;22;20436;-84
2023/01/23 06:42:59;;;;;;;14.10;8.63;;;2.30;99.90;;;;;;6222082;22;20094;-84
2023/01/23 06:45:24;;;;;;;16.42;8.52;;;2.50;99.90;;;;;;6273489;22;20070;-84
2023/01/23 06:47:51;;;;;;;18.45;9.20;;;2.50;99.90;;;;;;6247438;22;20012;-87
2023/01/23 06:50:17;;;;;;;15.35;8.45;;;2.20;99.90;;;;;;6222414;22;20447;-88
2023/01/23 06:52:42;;;;;;;22.30;9.32;;;2.20;99.90;;;;;;6229691;22;20016;-84
2023/01/23 06:55:09;;;;;;;19.83;8.95;;;2.40;99.90;;;;;;6275157;22;20050;-84
2023/01/23 06:57:35;;;;;;;18.80;9.57;;;2.60;99.90;;;;;;6222452;22;20316;-85
2023/01/23 07:00:01;;;;;;;18.20;9.02;;;2.50;99.90;;;;;;6247566;22;20045;-83
2023/01/23 07:02:26;;;;;;;16.23;8.82;;;2.30;99.90;;;;;;6257859;22;20007;-83
2023/01/23 07:04:52;;;;;;;19.52;9.30;;;2.60;99.90;;;;;;6246875;22;20012;-86
2023/01/23 07:07:18;;;;;;;16.23;8.60;;;2.60;99.90;;;;;;6219770;22;20016;-85
2023/01/23 07:09:44;;;;;;;16.05;8.82;;;2.50;99.90;;;;;;6220059;22;20051;-84
2023/01/23 07:12:09;;;;;;;17.25;9.00;;;2.60;99.90;;;;;;6219790;22;20023;-85
2023/01/23 07:14:35;;;;;;;14.75;8.98;;;2.50;99.90;;;;;;6244320;22;20012;-82
2023/01/23 07:17:01;;;;;;;17.52;9.10;;;2.40;99.90;;;;;;6244127;22;20338;-82
2023/01/23 07:19:26;;;;;;;18.42;9.57;;;2.30;99.90;;;;;;6245981;22;20082;-83
2023/01/23 07:22:01;;;;;;;18.23;9.05;;;2.50;99.90;;;;;;6224761;22;20016;-83
2023/01/23 07:24:31;;;;;;;;;;;2.50;99.90;;;;;;6248835;22;20057;-84
2023/01/23 07:26:57;;;;;;;15.75;8.55;;;2.50;99.90;;;;;;6216705;22;19914;-83
2023/01/23 07:29:23;;;;;;;16.40;8.88;;;2.60;99.90;;;;;;6230219;22;20012;-85
2023/01/23 07:31:48;;;;;;;17.52;8.68;;;2.70;99.90;;;;;;6242864;22;20023;-82
2023/01/23 07:34:14;;;;;;;11.52;8.15;;;2.60;99.90;;;;;;6244024;22;20087;-85
2023/01/23 07:36:40;;;;;;;16.73;8.90;;;2.70;99.90;;;;;;6218818;22;20093;-81
2023/01/23 07:39:05;;;;;;;16.45;8.90;;;2.50;99.90;;;;;;6243548;22;20015;-85
2023/01/23 07:41:31;;;;;;;19.88;8.80;;;2.50;99.90;;;;;;6271159;22;20039;-82
2023/01/23 07:43:57;;;;;;;16.35;8.63;;;2.30;99.90;;;;;;6271417;22;20011;-84
2023/01/23 07:46:24;;;;;;;15.10;8.32;;;2.60;99.90;;;;;;6244062;22;20020;-85
2023/01/23 07:48:50;;;;;;;13.13;8.02;;;2.70;99.90;;;;;;6218380;22;20020;-85
2023/01/23 07:51:16;;;;;;;16.45;8.38;;;2.70;99.90;;;;;;6215969;22;20027;-87
2023/01/23 07:53:41;;;;;;;13.18;7.88;;;2.50;99.90;;;;;;6242687;22;20011;-85
2023/01/23 07:56:07;;;;;;;13.00;7.80;;;2.80;99.90;;;;;;6243925;22;20015;-84
2023/01/23 07:58:33;;;;;;;14.13;7.93;;;2.40;99.90;;;;;;6217497;22;20336;-82
2023/01/23 08:00:59;;;;;;;13.60;7.00;;;2.40;99.90;;;;;;6270343;22;20023;-83
2023/01/23 08:03:27;;;;;;;11.40;7.38;;;2.40;99.90;;;;;;6243986;22;20011;-82
2023/01/23 08:05:53;;;;;;;13.75;7.70;;;2.50;99.90;;;;;;6246331;22;20008;-82
2023/01/23 08:08:19;;;;;;;12.88;8.00;;;2.70;99.90;;;;;;6248999;22;20019;-84
2023/01/23 08:10:45;;;;;;;13.40;7.50;;;2.70;99.90;;;;;;6249925;22;20026;-83
2023/01/23 08:13:10;;;;;;;13.90;7.18;;;2.60;99.90;;;;;;6238343;22;20015;-82
2023/01/23 08:15:37;;;;;;;10.35;6.65;;;2.70;99.90;;;;;;6266424;22;20073;-83
2023/01/23 08:18:03;;;;;;;14.35;7.72;;;2.70;99.90;;;;;;6230332;22;20034;-82
2023/01/23 08:20:29;;;;;;;15.88;6.97;;;2.50;99.90;;;;;;6277919;22;20022;-82
2023/01/23 08:22:56;;;;;;;11.43;7.22;;;2.60;99.90;;;;;;6220523;22;20379;-83
2023/01/23 08:25:21;;;;;;;12.48;7.45;;;2.60;99.90;;;;;;6270058;22;20019;-80
2023/01/23 08:27:47;;;;;;;11.02;7.03;;;2.80;99.90;;;;;;6269698;22;20268;-81
2023/01/23 08:30:13;;;;;;;13.80;6.97;;;2.70;99.90;;;;;;6272611;22;20019;-81
2023/01/23 08:32:57;;;;;;;13.63;7.20;;;2.60;99.90;;;;;;6271699;22;20202;-81
2023/01/23 08:35:23;;;;;;;15.10;7.18;;;2.60;99.90;;;;;;6247812;22;20470;-86
2023/01/23 08:37:48;;;;;;;12.00;7.15;;;2.90;99.90;;;;;;6247440;22;20026;-82
2023/01/23 08:40:14;;;;;;;10.90;6.50;;;2.70;99.90;;;;;;6249146;22;20023;-83
2023/01/23 08:42:40;;;;;;;10.70;6.25;;;2.70;99.90;;;;;;6223305;22;20447;-82
2023/01/23 08:45:06;;;;;;;8.48;5.93;;;2.90;99.90;;;;;;6247367;22;20015;-83
2023/01/23 08:47:35;;;;;;;9.35;6.28;;;2.80;99.90;;;;;;6247389;22;20024;-83
2023/01/23 08:50:01;;;;;;;11.98;6.70;;;2.80;99.90;;;;;;6248375;22;20019;-82
2023/01/23 08:52:27;;;;;;;11.27;5.60;;;3.00;99.90;;;;;;6249013;22;20030;-83
2023/01/23 08:54:53;;;;;;;9.43;5.95;;;2.70;99.90;;;;;;6222896;22;20119;-84
2023/01/23 08:57:18;;;;;;;8.70;5.25;;;2.90;99.90;;;;;;6247646;22;20037;-82
2023/01/23 08:59:44;;;;;;;10.02;5.82;;;2.90;99.90;;;;;;6244900;22;20012;-82
2023/01/23 09:05:51;;;;;;;8.70;4.88;;;2.80;99.90;;;;;;6273283;22;20030;-82
2023/01/23 09:08:43;;;;;;;7.32;5.30;;;2.80;99.90;;;;;;6222557;22;20014;-83
2023/01/23 09:11:10;;;;;;;11.43;5.30;;;3.00;99.90;;;;;;6216694;22;20343;-82
2023/01/23 09:13:36;;;;;;;8.73;5.03;;;2.80;99.90;;;;;;6221036;22;20016;-82
2023/01/23 09:16:03;;;;;;;6.82;5.03;;;3.00;99.90;;;;;;6245887;22;20038;-82
2023/01/23 09:18:29;;;;;;;8.80;5.05;;;2.90;99.90;;;;;;6244772;22;20023;-82
2023/01/23 09:20:55;;;;;;;7.75;5.20;;;2.90;99.90;;;;;;6243955;22;20022;-82
2023/01/23 09:23:21;;;;;;;8.02;5.22;;;3.00;99.90;;;;;;6219028;22;20074;-82
2023/01/23 09:25:46;;;;;;;8.30;4.90;;;2.90;99.90;;;;;;6222594;22;20016;-82
2023/01/23 09:28:12;;;;;;;10.10;4.85;;;2.90;99.90;;;;;;6219911;22;20093;-80
2023/01/23 09:30:39;;;;;;;8.13;5.00;;;3.00;99.90;;;;;;6273195;22;20012;-82
2023/01/23 09:36:49;;;;;;;6.03;4.78;;;3.10;99.90;;;;;;6273605;22;20042;-82
2023/01/23 09:39:14;;;;;;;10.18;5.30;;;3.00;99.90;;;;;;6245514;22;20054;-81
2023/01/23 09:41:43;;;;;;;9.52;4.70;;;3.00;99.90;;;;;;6220735;22;20016;-81
2023/01/23 09:44:32;;;;;;;6.22;5.00;;;3.10;99.90;;;;;;6245580;22;20443;-82
2023/01/23 09:47:25;;;;;;;6.93;5.00;;;3.10;99.90;;;;;;6220773;22;20344;-83
2023/01/23 09:50:01;;;;;;;7.28;5.05;;;3.00;99.90;;;;;;6246598;22;20011;-84
2023/01/23 09:52:32;;;;;;;7.63;4.68;;;3.00;99.90;;;;;;6247667;22;20011;-82
2023/01/23 09:55:17;;;;;;;6.70;4.47;;;3.20;99.90;;;;;;6246516;22;20014;-81
2023/01/23 09:57:54;;;;;;;7.53;4.75;;;3.10;99.90;;;;;;6220812;22;20015;-81
2023/01/23 10:00:30;;;;;;;7.72;4.78;;;3.20;99.90;;;;;;6273684;22;20019;-82
2023/01/23 10:02:57;;;;;;;8.55;4.70;;;3.20;99.90;;;;;;6221867;22;20503;-82
2023/01/23 10:05:35;;;;;;;6.90;4.90;;;3.20;99.90;;;;;;6247426;22;20305;-81
2023/01/23 10:08:06;;;;;;;6.53;4.80;;;3.30;99.90;;;;;;6247148;22;20011;-83
2023/01/23 10:10:55;;;;;;;6.70;4.72;;;3.40;99.90;;;;;;6244392;22;20019;-81
2023/01/23 10:13:54;;;;;;;6.25;5.03;;;3.40;99.90;;;;;;6070988;23;20039;-83
2023/01/23 10:20:14;;;;;;;6.30;4.15;;;3.40;99.90;;;;;;6119348;23;20021;-83
2023/01/23 10:22:50;;;;;;;6.15;4.20;;;3.30;99.90;;;;;;6091939;23;20018;-80
2023/01/23 10:25:19;;;;;;;6.85;4.70;;;3.40;99.90;;;;;;6092308;23;20014;-79
2023/01/23 10:27:46;;;;;;;7.00;4.55;;;3.40;99.90;;;;;;6118022;23;20033;-80
2023/01/23 10:30:24;;;;;;;10.70;5.80;;;3.60;99.90;;;;;;6094318;23;20025;-85
2023/01/23 10:33:33;;;;;;;9.63;6.90;;;3.50;99.90;;;;;;6093815;23;20022;-82
2023/01/23 10:36:20;;;;;;;7.60;5.93;;;3.50;99.90;;;;;;6094486;23;20176;-83
2023/01/23 10:39:05;;;;;;;8.20;6.20;;;3.40;99.90;;;;;;6094191;23;20347;-79
2023/01/23 10:41:32;;;;;;;;;;;3.40;99.90;;;;;;6093903;23;20347;-79
2023/01/23 10:43:59;;;;;;;10.30;7.20;;;3.40;99.90;;;;;;6093708;23;20361;-79
2023/01/23 10:49:47;;;;;;;9.38;6.72;;;3.50;99.90;;;;;;6153617;22;20315;-78
2023/01/23 10:52:48;;;;;;;9.07;6.93;;;3.50;99.90;;;;;;6244220;22;20011;-83
2023/01/23 10:55:29;;;;;;;9.25;6.55;;;3.50;99.90;;;;;;6093786;23;20465;-84
2023/01/23 10:57:58;;;;;;;10.70;7.10;;;3.50;99.90;;;;;;6069920;23;20014;-79
2023/01/23 11:00:35;;;;;;;12.02;7.00;;;3.50;99.90;;;;;;6093926;23;20077;-83
2023/01/23 11:03:19;;;;;;;11.05;7.38;;;3.50;99.90;;;;;;6094045;23;20014;-83
2023/01/23 11:05:54;;;;;;;13.77;8.32;;;3.60;99.90;;;;;;6070737;23;20379;-83
2023/01/23 11:08:37;;;;;;;15.25;8.07;;;3.60;99.90;;;;;;6094768;23;20081;-82
2023/01/23 11:11:15;;;;;;;17.48;9.10;;;3.50;99.90;;;;;;6070319;23;20454;-82
2023/01/23 11:13:43;;;;;;;11.93;8.15;;;3.70;99.90;;;;;;6070543;23;20021;-82
2023/01/23 11:16:20;;;;;;;11.32;8.63;;;3.60;99.90;;;;;;6094841;23;20021;-82
2023/01/23 11:19:07;;;;;;;12.27;9.38;;;3.60;99.90;;;;;;6119663;23;20057;-83
2023/01/23 11:21:35;;;;;;;12.20;8.90;;;3.70;99.90;;;;;;6095145;23;20021;-82
2023/01/23 11:24:06;;;;;;;13.85;9.40;;;3.70;99.90;;;;;;6071763;23;20033;-83
2023/01/23 11:26:34;;;;;;;13.90;9.50;;;3.50;99.90;;;;;;6095567;23;20014;-81
2023/01/23 11:29:00;;;;;;;13.23;8.80;;;3.50;99.90;;;;;;6147978;22;20023;-81
2023/01/23 11:31:26;;;;;;;14.95;9.45;;;3.80;99.90;;;;;;6243724;22;20019;-82
2023/01/23 11:34:00;;;;;;;16.20;9.45;;;3.80;99.90;;;;;;6217303;22;20352;-82
2023/01/23 11:36:37;;;;;;;14.35;9.82;;;3.80;99.90;;;;;;6273935;22;20423;-82
2023/01/23 11:39:17;;;;;;;12.63;10.18;;;4.00;99.90;;;;;;6245870;22;20459;-81
2023/01/23 11:41:44;;;;;;;16.05;9.93;;;4.00;99.90;;;;;;6248945;22;20051;-82
2023/01/23 11:44:21;;;;;;;13.30;8.98;;;4.00;99.90;;;;;;6277543;22;20004;-83
2023/01/23 11:47:00;;;;;;;11.55;8.80;;;4.10;99.90;;;;;;6239896;22;20027;-82
2023/01/23 11:50:00;;;;;;;13.13;7.95;;;4.00;99.90;;;;;;6250331;22;20094;-83
2023/01/23 11:52:37;;;;;;;13.25;9.18;;;4.00;99.90;;;;;;6246686;22;20018;-83
2023/01/23 11:55:30;;;;;;;17.92;13.10;;;4.10;99.90;;;;;;6218946;22;20101;-81
2023/01/23 11:58:13;;;;;;;15.55;12.00;;;4.10;99.90;;;;;;6246353;22;20012;-83
2023/01/23 12:00:42;;;;;;;14.35;10.05;;;4.20;99.90;;;;;;6273467;22;20316;-85
2023/01/23 12:03:44;;;;;;;13.43;9.32;;;4.10;99.90;;;;;;6243939;22;20078;-82
2023/01/23 12:06:38;;;;;;;11.73;7.88;;;4.20;99.90;;;;;;6246427;22;20035;-83
2023/01/23 12:09:16;;;;;;;10.18;8.27;;;4.10;99.90;;;;;;6218391;22;20012;-84
2023/01/23 12:12:05;;;;;;;13.52;8.10;;;4.10;99.90;;;;;;6227681;22;20089;-84
2023/01/23 12:15:09;;;;;;;10.80;7.10;;;4.10;99.90;;;;;;6217992;22;20054;-83
2023/01/23 12:17:50;;;;;;;5.18;3.40;;;4.00;99.90;;;;;;6094001;23;20088;-83
2023/01/23 12:20:36;;;;;;;6.35;3.83;;;4.10;99.90;;;;;;6070668;23;20473;-84
2023/01/23 12:23:32;;;;;;;6.63;5.10;;;4.10;99.90;;;;;;6070101;23;20185;-83
2023/01/23 12:26:12;;;;;;;11.82;6.43;;;4.30;99.90;;;;;;5957776;23;20440;-83
2023/01/23 12:28:44;;;;;;;8.65;6.13;;;4.40;99.90;;;;;;5957698;23;20047;-82
2023/01/23 12:31:36;;;;;;;9.75;6.55;;;4.30;99.90;;;;;;5957094;23;20058;-83
2023/01/23 12:34:38;;;;;;;8.57;6.35;;;4.20;99.90;;;;;;5965699;23;20340;-82
2023/01/23 12:37:13;;;;;;;4.63;3.75;;;4.10;99.90;;;;;;5953024;23;20148;-83
2023/01/23 12:39:51;;;;;;;;;;;4.10;99.90;;;;;;5977562;23;20357;-83
2023/01/23 12:42:23;;;;;;;12.75;7.35;;;4.10;99.90;;;;;;5978373;23;19918;-83
2023/01/23 12:45:22;;;;;;;10.43;6.70;;;3.90;99.90;;;;;;5953690;23;20111;-82
2023/01/23 12:48:12;;;;;;;13.07;6.30;;;4.00;99.90;;;;;;5953105;23;20059;-82
2023/01/23 12:50:54;;;;;;;9.20;6.30;;;4.00;99.90;;;;;;5973980;23;20862;-81
2023/01/23 12:53:25;;;;;;;9.95;6.57;;;4.00;99.90;;;;;;6096517;23;20025;-82
2023/01/23 12:56:05;;;;;;;8.65;6.50;;;4.10;99.90;;;;;;6148139;23;20093;-82
2023/01/23 12:58:34;;;;;;;11.88;7.50;;;4.00;99.90;;;;;;6122133;23;20018;-83
2023/01/23 13:01:03;;;;;;;10.38;6.93;;;3.80;99.90;;;;;;6097295;23;20123;-82
2023/01/23 13:03:47;;;;;;;11.55;7.03;;;3.90;99.90;;;;;;6214687;22;20079;-82
2023/01/23 13:06:28;;;;;;;11.45;7.78;;;3.90;99.90;;;;;;6246026;22;20028;-81
2023/01/23 13:09:15;;;;;;;10.82;7.72;;;3.90;99.90;;;;;;6244662;22;20039;-82
2023/01/23 13:12:07;;;;;;;9.05;5.90;;;4.00;99.90;;;;;;6248178;22;20022;-82
2023/01/23 13:14:33;;;;;;;10.65;6.28;;;4.00;99.90;;;;;;6218008;22;20016;-81
2023/01/23 13:17:02;;;;;;;9.00;6.28;;;3.90;99.90;;;;;;6243553;22;20061;-83
2023/01/23 13:23:34;;;;;;;8.00;6.20;;;3.90;99.90;;;;;;6271975;22;20030;-83
2023/01/23 13:26:15;;;;;;;7.25;5.75;;;4.00;99.90;;;;;;6224506;22;20016;-83
2023/01/23 13:28:47;;;;;;;7.68;6.00;;;4.00;99.90;;;;;;6246224;22;20077;-82
2023/01/23 13:31:41;;;;;;;9.38;6.55;;;3.90;99.90;;;;;;6242948;22;20012;-80
2023/01/23 13:34:15;;;;;;;10.38;6.28;;;3.90;99.90;;;;;;6243763;22;20065;-82
2023/01/23 13:36:43;;;;;;;10.50;5.80;;;4.00;99.90;;;;;;6218250;22;20020;-84
2023/01/23 13:39:28;;;;;;;5.93;4.72;;;4.00;99.90;;;;;;6243378;22;20098;-80
2023/01/23 13:42:12;;;;;;;;;;;4.00;99.90;;;;;;6242609;22;20024;-83